»·PEaware :: UAL1472 KDEN-KSAN

UAL1472 :: KDEN-KSAN

FLIGHT INFORMATION

Flight Status: Arrived
Operator:
United Airlines
More flights by this operator :: More flights under this callsign
Pilot: Colin A. (19898)
Aircraft: BOEING 737-800
(B738)
More flights by this aircraft type
Origin: KDEN Denver Intl
United States
Destination: KSAN San Diego Intl-Lindbergh
United States
More flights between these airports :: More routes between these airports
Route: BAYLR6 TEHRU PLNDL Q86 TTRUE LUCKI1
File this flight plan on PilotEdge
Remarks: RMK / SIMBRIEF
Altitude:
(Current/Filed)
36,000ft
Speed:
(Current/Filed)
448kts
Departed: 17-Apr-20 06:52 PM
Arrived: 17-Apr-20 09:00 PM
Distance/Time
Traveled:
741nm/2:08
Distance/Time
To Go:
Arrived

Flight Plot

Page will automatically refresh every two minutes.

Flight plan parsing failed; only flown route is shown


Map Options




Map Legend


Flown Route
Filed Route
Departure Airport
Arrival Airport
Navaid (VOR, NDB)
Fix

Horizontal Profiles

Position Reports

Time Latitude Longitude Heading Altitude Ground
Speed
17-Apr-20 18:17 39.859436 -104.676433 181 5438ft 0kts
17-Apr-20 18:18 39.859436 -104.676433 181 5438ft 0kts
17-Apr-20 18:19 39.859436 -104.676433 181 5438ft 0kts
17-Apr-20 18:20 39.859436 -104.676433 181 5438ft 0kts
17-Apr-20 18:21 39.859436 -104.676433 181 5438ft 0kts
17-Apr-20 18:22 39.859436 -104.676433 181 5438ft 0kts
17-Apr-20 18:23 39.859436 -104.676433 181 5438ft 0kts
17-Apr-20 18:24 39.859436 -104.676433 181 5438ft 0kts
17-Apr-20 18:25 39.859436 -104.676433 181 5438ft 0kts
17-Apr-20 18:26 39.859436 -104.676433 181 5438ft 0kts
17-Apr-20 18:27 39.859436 -104.676433 181 5438ft 0kts
17-Apr-20 18:28 39.859436 -104.676433 181 5438ft 0kts
17-Apr-20 18:29 39.859436 -104.676433 181 5438ft 0kts
17-Apr-20 18:30 39.859436 -104.676433 181 5438ft 0kts
17-Apr-20 18:31 39.859436 -104.676433 181 5438ft 0kts
17-Apr-20 18:32 39.859436 -104.676433 181 5438ft 0kts
17-Apr-20 18:33 39.859436 -104.676433 181 5438ft 0kts
17-Apr-20 18:34 39.859436 -104.676433 181 5438ft 0kts
17-Apr-20 18:35 39.859436 -104.676433 181 5438ft 0kts
17-Apr-20 18:36 39.859436 -104.676433 181 5438ft 0kts
17-Apr-20 18:37 39.859436 -104.676433 181 5438ft 0kts
17-Apr-20 18:38 39.859885 -104.676336 206 5438ft 2kts
17-Apr-20 18:39 39.860087 -104.675914 270 5438ft 0kts
17-Apr-20 18:40 39.860087 -104.675914 270 5438ft 0kts
17-Apr-20 18:41 39.860087 -104.675914 270 5438ft 0kts
17-Apr-20 18:42 39.860087 -104.675916 270 5438ft 0kts
17-Apr-20 18:43 39.860147 -104.678319 275 5438ft 11kts
17-Apr-20 18:44 39.860775 -104.680234 268 5438ft 0kts
17-Apr-20 18:45 39.860565 -104.681499 236 5438ft 1kts
17-Apr-20 18:46 39.859799 -104.683901 186 5438ft 15kts
17-Apr-20 18:47 39.853591 -104.683997 182 5438ft 27kts
17-Apr-20 18:48 39.847477 -104.684091 182 5438ft 16kts
17-Apr-20 18:49 39.843654 -104.684124 180 5438ft 11kts
17-Apr-20 18:50 39.840688 -104.684892 266 5438ft 13kts
17-Apr-20 18:51 39.841015 -104.723863 271 5554ft 179kts
17-Apr-20 18:52 39.823594 -104.796903 231 7532ft 228kts
17-Apr-20 18:53 39.786556 -104.877304 242 8943ft 285kts
17-Apr-20 18:54 39.759534 -104.975624 255 11372ft 305kts
17-Apr-20 18:55 39.728898 -105.089954 246 12638ft 361kts
17-Apr-20 18:56 39.688644 -105.209499 247 15294ft 363kts
17-Apr-20 18:57 39.648594 -105.330951 247 17766ft 364kts
17-Apr-20 18:58 39.608577 -105.452223 247 19863ft 370kts
17-Apr-20 18:59 39.567410 -105.576139 247 21683ft 377kts
17-Apr-20 19:00 39.529530 -105.702548 251 23143ft 382kts
17-Apr-20 19:01 39.494173 -105.832040 251 23966ft 382kts
17-Apr-20 19:02 39.461941 -105.948271 251 25065ft 391kts
17-Apr-20 19:03 39.424221 -106.082448 251 26130ft 402kts
17-Apr-20 19:04 39.385572 -106.219318 251 27212ft 408kts
17-Apr-20 19:05 39.346773 -106.356515 252 28623ft 404kts
17-Apr-20 19:06 39.308374 -106.492098 251 29972ft 400kts
17-Apr-20 19:07 39.269818 -106.626376 252 31235ft 396kts
17-Apr-20 19:08 39.220276 -106.752503 238 32397ft 399kts
17-Apr-20 19:09 39.152719 -106.865766 237 33552ft 393kts
17-Apr-20 19:10 39.085085 -106.976726 237 34503ft 393kts
17-Apr-20 19:11 39.017422 -107.086922 238 35402ft 390kts
17-Apr-20 19:12 38.950401 -107.196239 238 36240ft 388kts
17-Apr-20 19:13 38.883456 -107.304634 238 36288ft 385kts
17-Apr-20 19:14 38.816778 -107.412064 238 36299ft 384kts
17-Apr-20 19:15 38.750003 -107.519221 238 36317ft 383kts
17-Apr-20 19:16 38.683473 -107.625624 238 36327ft 382kts
17-Apr-20 19:17 38.617159 -107.731288 238 36335ft 380kts
17-Apr-20 19:18 38.550995 -107.836369 238 36339ft 378kts
17-Apr-20 19:19 38.485119 -107.940653 238 36340ft 377kts
17-Apr-20 19:20 38.419343 -108.044442 239 36339ft 377kts
17-Apr-20 19:21 38.353443 -108.148129 238 36337ft 375kts
17-Apr-20 19:22 38.287444 -108.251607 238 36339ft 375kts
17-Apr-20 19:23 38.221640 -108.354435 238 36341ft 375kts
17-Apr-20 19:24 38.155481 -108.457499 238 36345ft 377kts
17-Apr-20 19:25 38.088888 -108.560914 238 36344ft 377kts
17-Apr-20 19:26 38.022402 -108.663838 238 36343ft 378kts
17-Apr-20 19:27 37.955719 -108.766756 238 36337ft 372kts
17-Apr-20 19:28 37.890549 -108.867004 238 36331ft 370kts
17-Apr-20 19:29 37.825072 -108.967418 238 36327ft 368kts
17-Apr-20 19:30 37.759670 -109.067412 238 36326ft 369kts
17-Apr-20 19:31 37.694261 -109.167127 238 36329ft 369kts
17-Apr-20 19:32 37.628437 -109.267145 238 36334ft 370kts
17-Apr-20 19:33 37.562525 -109.367011 238 36338ft 371kts
17-Apr-20 19:34 37.496450 -109.466800 238 36338ft 371kts
17-Apr-20 19:35 37.430234 -109.566517 238 36336ft 371kts
17-Apr-20 19:36 37.364193 -109.665656 238 36332ft 369kts
17-Apr-20 19:37 37.297981 -109.764760 238 36329ft 369kts
17-Apr-20 19:38 37.232179 -109.862966 238 36326ft 368kts
17-Apr-20 19:39 37.165997 -109.961427 238 36323ft 368kts
17-Apr-20 19:40 37.099926 -110.059443 238 36320ft 367kts
17-Apr-20 19:41 37.034385 -110.156376 238 36313ft 366kts
17-Apr-20 19:42 36.968343 -110.253763 238 36306ft 364kts
17-Apr-20 19:43 36.902708 -110.350264 238 36292ft 364kts
17-Apr-20 19:44 36.837218 -110.446281 238 36271ft 363kts
17-Apr-20 19:45 36.771612 -110.542191 238 36265ft 363kts
17-Apr-20 19:46 36.706020 -110.637808 237 36261ft 362kts
17-Apr-20 19:47 36.640722 -110.732720 237 36262ft 361kts
17-Apr-20 19:48 36.575107 -110.827765 237 36258ft 361kts
17-Apr-20 19:49 36.509573 -110.922476 236 36257ft 361kts
17-Apr-20 19:51 36.443839 -111.017177 237 36256ft 361kts
17-Apr-20 19:52 36.378253 -111.111499 237 36256ft 361kts
17-Apr-20 19:53 36.312011 -111.206542 237 36259ft 366kts
17-Apr-20 19:54 36.245245 -111.301769 237 36258ft 365kts
17-Apr-20 19:55 36.178516 -111.396910 237 36258ft 363kts
17-Apr-20 19:56 36.112591 -111.490686 237 36263ft 363kts
17-Apr-20 19:57 36.046004 -111.585069 237 36264ft 361kts
17-Apr-20 19:58 35.980359 -111.678194 236 36266ft 363kts
17-Apr-20 19:59 35.913384 -111.772490 236 36270ft 365kts
17-Apr-20 20:00 35.847604 -111.865778 240 36268ft 356kts
17-Apr-20 20:01 35.796893 -111.969921 246 36271ft 355kts
17-Apr-20 20:02 35.748799 -112.075750 246 36270ft 349kts
17-Apr-20 20:03 35.700200 -112.180717 245 36275ft 354kts
17-Apr-20 20:04 35.651037 -112.285162 245 36273ft 352kts
17-Apr-20 20:05 35.601932 -112.389358 245 36272ft 351kts
17-Apr-20 20:06 35.552944 -112.494156 245 36272ft 354kts
17-Apr-20 20:07 35.503846 -112.598819 245 36276ft 355kts
17-Apr-20 20:07 35.462765 -112.686396 245 36271ft 356kts
17-Apr-20 20:09 35.405656 -112.808219 245 36272ft 356kts
17-Apr-20 20:10 35.356433 -112.913339 245 36267ft 355kts
17-Apr-20 20:10 35.315195 -113.000493 245 36265ft 357kts
17-Apr-20 20:11 35.265215 -113.105708 245 36243ft 355kts
17-Apr-20 20:13 35.207007 -113.227792 244 36226ft 357kts
17-Apr-20 20:13 35.165348 -113.314731 244 36219ft 356kts
17-Apr-20 20:14 35.115199 -113.419354 244 36215ft 357kts
17-Apr-20 20:15 35.064821 -113.523964 244 36214ft 357kts
17-Apr-20 20:16 35.015143 -113.628073 244 36212ft 356kts
17-Apr-20 20:17 34.964448 -113.733389 244 36209ft 359kts
17-Apr-20 20:18 34.914143 -113.837022 244 36206ft 356kts
17-Apr-20 20:19 34.863748 -113.940408 243 36194ft 355kts
17-Apr-20 20:20 34.810510 -114.043367 243 36180ft 362kts
17-Apr-20 20:21 34.756963 -114.148053 242 36154ft 365kts
17-Apr-20 20:22 34.702704 -114.252554 243 36150ft 367kts
17-Apr-20 20:23 34.648116 -114.357073 242 36149ft 363kts
17-Apr-20 20:24 34.584810 -114.452469 235 36140ft 366kts
17-Apr-20 20:25 34.517397 -114.545796 236 36146ft 369kts
17-Apr-20 20:26 34.449515 -114.640162 235 36147ft 370kts
17-Apr-20 20:27 34.381024 -114.733453 234 36140ft 371kts
17-Apr-20 20:28 34.312413 -114.827107 235 36151ft 373kts
17-Apr-20 20:29 34.244044 -114.920248 235 36133ft 366kts
17-Apr-20 20:30 34.176273 -115.012878 234 36129ft 371kts
17-Apr-20 20:31 34.107554 -115.106696 235 36132ft 372kts
17-Apr-20 20:32 34.038414 -115.199917 235 36130ft 373kts
17-Apr-20 20:33 33.969823 -115.292496 234 36124ft 368kts
17-Apr-20 20:34 33.901785 -115.384971 235 36125ft 369kts
17-Apr-20 20:35 33.833152 -115.477812 234 36120ft 372kts
17-Apr-20 20:36 33.765005 -115.569725 234 34296ft 367kts
17-Apr-20 20:37 33.696020 -115.660930 232 31476ft 375kts
17-Apr-20 20:38 33.622619 -115.759636 234 28901ft 419kts
17-Apr-20 20:39 33.556941 -115.872016 237 26582ft 406kts
17-Apr-20 20:40 33.493107 -115.982563 237 24326ft 400kts
17-Apr-20 20:41 33.429816 -116.091659 237 22112ft 395kts
17-Apr-20 20:42 33.367668 -116.198275 237 20030ft 386kts
17-Apr-20 20:43 33.286514 -116.279197 210 17948ft 387kts
17-Apr-20 20:44 33.192585 -116.334972 208 15939ft 362kts
17-Apr-20 20:45 33.104909 -116.386209 208 14097ft 347kts
17-Apr-20 20:46 33.019123 -116.436395 210 12294ft 331kts
17-Apr-20 20:47 32.950442 -116.499261 222 11132ft 293kts
17-Apr-20 20:48 32.891903 -116.558828 221 10188ft 279kts
17-Apr-20 20:49 32.833135 -116.618051 221 9093ft 275kts
17-Apr-20 20:50 32.776258 -116.677482 230 7998ft 270kts
17-Apr-20 20:51 32.737454 -116.754684 241 6896ft 271kts
17-Apr-20 20:52 32.702715 -116.831514 249 5759ft 257kts
17-Apr-20 20:53 32.679488 -116.909128 252 4628ft 244kts
17-Apr-20 20:54 32.681943 -116.984475 292 3543ft 224kts
17-Apr-20 20:55 32.699600 -117.050040 287 2518ft 189kts
17-Apr-20 20:56 32.712810 -117.104029 287 1566ft 159kts
17-Apr-20 20:57 32.724423 -117.152061 286 682ft 145kts
17-Apr-20 20:58 32.734633 -117.194438 288 23ft 60kts
17-Apr-20 20:59 32.736000 -117.201666 247 22ft 11kts
17-Apr-20 21:00 32.735346 -117.204911 216 22ft 4kts
17-Apr-20 21:01 32.733995 -117.205561 176 22ft 0kts
17-Apr-20 21:02 32.732954 -117.204650 111 22ft 0kts
17-Apr-20 21:03 32.732954 -117.204650 111 22ft 0kts
17-Apr-20 21:04 32.732954 -117.204650 111 22ft 0kts
17-Apr-20 21:05 32.732954 -117.204650 111 22ft 0kts
17-Apr-20 21:06 32.732954 -117.204650 111 22ft 0kts
17-Apr-20 21:07 32.732954 -117.204650 111 22ft 0kts
17-Apr-20 21:08 32.732954 -117.204650 111 22ft 0kts

Navigation Log

Ident Type
Flight plan parsing failed, navigation log unavailable